Log in Register

Login to your account

Username *
Password *
Remember Me

Create an account

Fields marked with an asterisk (*) are required.
Name *
Username *
Password *
Verify password *
Email *
Verify email *

Please enter the email address for your account. A verification code will be sent to you. Once you have received the verification code, you will be able to choose a new password for your account.

Nous contacter

 Téléphone : +33 (0)4 79 54 41 81

Coordonnées détaillées et accès : cliquez ici

 
LFLB °C
    Ferienhaus Ostsee
[source: ADDS]
METAR
LFLB 190100Z AUTO VRB02KT CAVOK 17/12 Q1016 NOSIG =
TAF LFLB 182300Z 1900/1924 VRB02KT CAVOK
TAF
TAF LFLB 182300Z 1900/1924 VRB02KT CAVOK =
SR / SS: 04:05 / 19:20 UTC (Lever/Coucher du soleil le 2019-07-19)
JSN Boot template designed by JoomlaShine.com